sensor_id;sensor_type;location;lat;lon;timestamp;temperature;humidity
47414;DHT22;33163;0.000;0.000;2022-09-27T00:01:14;19.10;75.10
47414;DHT22;33163;0.000;0.000;2022-09-27T00:03:41;19.20;75.10
47414;DHT22;33163;0.000;0.000;2022-09-27T00:06:11;19.10;75.10
47414;DHT22;33163;0.000;0.000;2022-09-27T00:08:38;19.10;75.10
47414;DHT22;33163;0.000;0.000;2022-09-27T00:11:11;19.10;75.20
47414;DHT22;33163;0.000;0.000;2022-09-27T00:13:40;19.10;75.10
47414;DHT22;33163;0.000;0.000;2022-09-27T00:16:08;19.10;75.20
47414;DHT22;33163;0.000;0.000;2022-09-27T00:18:35;19.10;75.30
47414;DHT22;33163;0.000;0.000;2022-09-27T00:21:07;19.10;75.20
47414;DHT22;33163;0.000;0.000;2022-09-27T00:23:34;19.10;75.20
47414;DHT22;33163;0.000;0.000;2022-09-27T00:26:02;19.10;75.10
47414;DHT22;33163;0.000;0.000;2022-09-27T00:28:30;19.10;75.10
47414;DHT22;33163;0.000;0.000;2022-09-27T00:30:57;19.10;75.10
47414;DHT22;33163;0.000;0.000;2022-09-27T00:33:24;19.10;75.10
47414;DHT22;33163;0.000;0.000;2022-09-27T00:35:51;19.10;75.40
47414;DHT22;33163;0.000;0.000;2022-09-27T00:38:18;19.10;75.00
47414;DHT22;33163;0.000;0.000;2022-09-27T00:40:45;19.10;75.00
47414;DHT22;33163;0.000;0.000;2022-09-27T00:43:16;19.10;75.00
47414;DHT22;33163;0.000;0.000;2022-09-27T00:45:47;19.10;75.10
47414;DHT22;33163;0.000;0.000;2022-09-27T00:48:17;19.10;75.10
47414;DHT22;33163;0.000;0.000;2022-09-27T00:50:48;19.10;75.00
47414;DHT22;33163;0.000;0.000;2022-09-27T00:53:20;19.10;75.00
47414;DHT22;33163;0.000;0.000;2022-09-27T00:55:50;19.10;75.00
47414;DHT22;33163;0.000;0.000;2022-09-27T00:58:21;19.10;74.90
47414;DHT22;33163;0.000;0.000;2022-09-27T01:00:54;19.10;74.80
47414;DHT22;33163;0.000;0.000;2022-09-27T01:03:27;19.10;74.80
47414;DHT22;33163;0.000;0.000;2022-09-27T01:05:56;19.10;74.70
47414;DHT22;33163;0.000;0.000;2022-09-27T01:08:23;19.10;74.70
47414;DHT22;33163;0.000;0.000;2022-09-27T01:10:57;19.10;74.80
47414;DHT22;33163;0.000;0.000;2022-09-27T01:13:33;19.10;74.70
47414;DHT22;33163;0.000;0.000;2022-09-27T01:16:10;19.10;74.70
47414;DHT22;33163;0.000;0.000;2022-09-27T01:18:42;19.10;74.60
47414;DHT22;33163;0.000;0.000;2022-09-27T01:21:21;19.10;74.80
47414;DHT22;33163;0.000;0.000;2022-09-27T01:27:07;19.10;74.40
47414;DHT22;33163;0.000;0.000;2022-09-27T01:29:51;19.10;74.30
47414;DHT22;33163;0.000;0.000;2022-09-27T01:32:24;19.10;74.50
47414;DHT22;33163;0.000;0.000;2022-09-27T01:34:54;19.10;74.40
47414;DHT22;33163;0.000;0.000;2022-09-27T01:37:33;19.00;74.30
47414;DHT22;33163;0.000;0.000;2022-09-27T01:40:08;19.10;74.60
47414;DHT22;33163;0.000;0.000;2022-09-27T01:42:39;19.10;74.50
47414;DHT22;33163;0.000;0.000;2022-09-27T01:45:11;19.10;74.40
47414;DHT22;33163;0.000;0.000;2022-09-27T01:47:44;19.10;74.30
47414;DHT22;33163;0.000;0.000;2022-09-27T01:50:14;19.10;74.30
47414;DHT22;33163;0.000;0.000;2022-09-27T01:52:46;19.10;74.50
47414;DHT22;33163;0.000;0.000;2022-09-27T01:55:16;19.10;74.40
47414;DHT22;33163;0.000;0.000;2022-09-27T01:57:48;19.10;74.50
47414;DHT22;33163;0.000;0.000;2022-09-27T02:00:16;19.00;74.40
47414;DHT22;33163;0.000;0.000;2022-09-27T02:02:47;19.10;74.30
47414;DHT22;33163;0.000;0.000;2022-09-27T02:05:15;19.10;74.20
47414;DHT22;33163;0.000;0.000;2022-09-27T02:07:46;19.00;74.30
47414;DHT22;33163;0.000;0.000;2022-09-27T02:10:17;19.00;74.30
47414;DHT22;33163;0.000;0.000;2022-09-27T02:12:51;19.00;74.30
47414;DHT22;33163;0.000;0.000;2022-09-27T02:15:22;19.00;74.50
47414;DHT22;33163;0.000;0.000;2022-09-27T02:17:55;19.00;74.50
47414;DHT22;33163;0.000;0.000;2022-09-27T02:20:28;19.00;74.40
47414;DHT22;33163;0.000;0.000;2022-09-27T02:23:04;19.00;74.50
47414;DHT22;33163;0.000;0.000;2022-09-27T02:25:39;19.00;74.50
47414;DHT22;33163;0.000;0.000;2022-09-27T02:28:16;19.00;74.40
47414;DHT22;33163;0.000;0.000;2022-09-27T02:30:45;19.00;74.10
47414;DHT22;33163;0.000;0.000;2022-09-27T02:33:13;19.00;74.10
47414;DHT22;33163;0.000;0.000;2022-09-27T02:35:40;19.00;74.00
47414;DHT22;33163;0.000;0.000;2022-09-27T02:38:07;19.00;73.90
47414;DHT22;33163;0.000;0.000;2022-09-27T02:40:41;19.00;73.90
47414;DHT22;33163;0.000;0.000;2022-09-27T02:43:09;19.00;73.90
47414;DHT22;33163;0.000;0.000;2022-09-27T02:45:43;19.00;74.00
47414;DHT22;33163;0.000;0.000;2022-09-27T02:48:21;19.00;73.90
47414;DHT22;33163;0.000;0.000;2022-09-27T02:51:16;19.00;73.90
47414;DHT22;33163;0.000;0.000;2022-09-27T02:54:00;19.00;73.90
47414;DHT22;33163;0.000;0.000;2022-09-27T02:56:33;19.00;73.90
47414;DHT22;33163;0.000;0.000;2022-09-27T02:59:05;19.00;73.90
47414;DHT22;33163;0.000;0.000;2022-09-27T03:01:39;19.00;73.90
47414;DHT22;33163;0.000;0.000;2022-09-27T03:04:14;19.00;73.80
47414;DHT22;33163;0.000;0.000;2022-09-27T03:06:45;19.00;73.60
47414;DHT22;33163;0.000;0.000;2022-09-27T03:09:16;19.00;73.40
47414;DHT22;33163;0.000;0.000;2022-09-27T03:11:43;19.00;73.30
47414;DHT22;33163;0.000;0.000;2022-09-27T03:14:10;19.00;73.60
47414;DHT22;33163;0.000;0.000;2022-09-27T03:16:37;19.00;73.50
47414;DHT22;33163;0.000;0.000;2022-09-27T03:19:03;19.00;73.50
47414;DHT22;33163;0.000;0.000;2022-09-27T03:21:31;19.00;73.40
47414;DHT22;33163;0.000;0.000;2022-09-27T03:24:01;19.00;73.30
47414;DHT22;33163;0.000;0.000;2022-09-27T03:26:28;19.00;73.40
47414;DHT22;33163;0.000;0.000;2022-09-27T03:28:55;18.90;73.30
47414;DHT22;33163;0.000;0.000;2022-09-27T03:31:21;18.90;73.40
47414;DHT22;33163;0.000;0.000;2022-09-27T03:33:48;18.90;73.40
47414;DHT22;33163;0.000;0.000;2022-09-27T03:36:15;19.00;73.50
47414;DHT22;33163;0.000;0.000;2022-09-27T03:38:43;18.90;73.20
47414;DHT22;33163;0.000;0.000;2022-09-27T03:41:10;18.90;73.10
47414;DHT22;33163;0.000;0.000;2022-09-27T03:43:36;18.90;74.00
47414;DHT22;33163;0.000;0.000;2022-09-27T03:46:03;18.90;73.70
47414;DHT22;33163;0.000;0.000;2022-09-27T03:48:30;18.90;73.80
47414;DHT22;33163;0.000;0.000;2022-09-27T03:50:57;18.90;73.60
47414;DHT22;33163;0.000;0.000;2022-09-27T03:53:24;18.90;73.20
47414;DHT22;33163;0.000;0.000;2022-09-27T03:55:52;18.90;73.10
47414;DHT22;33163;0.000;0.000;2022-09-27T03:58:19;18.90;73.30
47414;DHT22;33163;0.000;0.000;2022-09-27T04:00:48;18.90;73.40
47414;DHT22;33163;0.000;0.000;2022-09-27T04:03:14;18.90;73.50
47414;DHT22;33163;0.000;0.000;2022-09-27T04:05:42;18.90;73.40
47414;DHT22;33163;0.000;0.000;2022-09-27T04:08:08;18.90;73.20
47414;DHT22;33163;0.000;0.000;2022-09-27T04:10:36;18.90;73.10
47414;DHT22;33163;0.000;0.000;2022-09-27T04:13:04;18.90;73.40
47414;DHT22;33163;0.000;0.000;2022-09-27T04:15:31;18.90;73.40
47414;DHT22;33163;0.000;0.000;2022-09-27T04:17:58;18.90;73.40
47414;DHT22;33163;0.000;0.000;2022-09-27T04:20:25;18.90;73.50
47414;DHT22;33163;0.000;0.000;2022-09-27T04:22:51;18.90;73.50
47414;DHT22;33163;0.000;0.000;2022-09-27T04:25:18;18.90;73.40
47414;DHT22;33163;0.000;0.000;2022-09-27T04:27:45;18.90;73.60
47414;DHT22;33163;0.000;0.000;2022-09-27T04:30:14;18.90;73.30
47414;DHT22;33163;0.000;0.000;2022-09-27T04:32:41;18.90;73.10
47414;DHT22;33163;0.000;0.000;2022-09-27T04:35:09;18.90;72.90
47414;DHT22;33163;0.000;0.000;2022-09-27T04:37:53;18.90;73.20
47414;DHT22;33163;0.000;0.000;2022-09-27T04:40:20;18.90;73.20
47414;DHT22;33163;0.000;0.000;2022-09-27T04:42:47;18.90;73.30
47414;DHT22;33163;0.000;0.000;2022-09-27T04:45:16;18.90;73.40
47414;DHT22;33163;0.000;0.000;2022-09-27T04:47:43;18.90;73.20
47414;DHT22;33163;0.000;0.000;2022-09-27T04:50:11;18.80;73.00
47414;DHT22;33163;0.000;0.000;2022-09-27T04:52:40;18.80;73.00
47414;DHT22;33163;0.000;0.000;2022-09-27T04:55:08;18.80;73.00
47414;DHT22;33163;0.000;0.000;2022-09-27T04:57:35;18.80;73.10
47414;DHT22;33163;0.000;0.000;2022-09-27T05:00:03;18.80;73.00
47414;DHT22;33163;0.000;0.000;2022-09-27T05:02:31;18.90;73.20
47414;DHT22;33163;0.000;0.000;2022-09-27T05:04:58;18.80;73.10
47414;DHT22;33163;0.000;0.000;2022-09-27T05:07:25;18.80;73.00
47414;DHT22;33163;0.000;0.000;2022-09-27T05:09:52;18.80;72.80
47414;DHT22;33163;0.000;0.000;2022-09-27T05:12:19;18.80;72.80
47414;DHT22;33163;0.000;0.000;2022-09-27T05:14:46;18.80;73.00
47414;DHT22;33163;0.000;0.000;2022-09-27T05:17:13;18.80;72.90
47414;DHT22;33163;0.000;0.000;2022-09-27T05:19:41;18.80;72.70
47414;DHT22;33163;0.000;0.000;2022-09-27T05:22:08;18.80;72.70
47414;DHT22;33163;0.000;0.000;2022-09-27T05:24:35;18.80;72.80
47414;DHT22;33163;0.000;0.000;2022-09-27T05:27:02;18.80;72.90
47414;DHT22;33163;0.000;0.000;2022-09-27T05:29:33;18.80;72.90
47414;DHT22;33163;0.000;0.000;2022-09-27T05:32:00;18.80;72.70
47414;DHT22;33163;0.000;0.000;2022-09-27T05:34:27;18.80;72.80
47414;DHT22;33163;0.000;0.000;2022-09-27T05:36:58;18.80;72.50
47414;DHT22;33163;0.000;0.000;2022-09-27T05:39:24;18.80;72.50
47414;DHT22;33163;0.000;0.000;2022-09-27T05:41:51;18.80;73.20
47414;DHT22;33163;0.000;0.000;2022-09-27T05:44:23;18.80;72.50
47414;DHT22;33163;0.000;0.000;2022-09-27T05:46:50;18.80;72.70
47414;DHT22;33163;0.000;0.000;2022-09-27T05:49:17;18.80;72.80
47414;DHT22;33163;0.000;0.000;2022-09-27T05:51:44;18.80;72.80
47414;DHT22;33163;0.000;0.000;2022-09-27T05:54:13;18.80;72.30
47414;DHT22;33163;0.000;0.000;2022-09-27T05:56:39;18.80;72.70
47414;DHT22;33163;0.000;0.000;2022-09-27T05:59:06;18.80;72.90
47414;DHT22;33163;0.000;0.000;2022-09-27T06:01:33;18.80;72.50
47414;DHT22;33163;0.000;0.000;2022-09-27T06:04:01;18.80;72.40
47414;DHT22;33163;0.000;0.000;2022-09-27T06:06:28;18.80;73.00
47414;DHT22;33163;0.000;0.000;2022-09-27T06:08:54;18.80;73.40
47414;DHT22;33163;0.000;0.000;2022-09-27T06:11:23;18.80;73.10
47414;DHT22;33163;0.000;0.000;2022-09-27T06:13:52;18.80;72.80
47414;DHT22;33163;0.000;0.000;2022-09-27T06:16:18;18.80;73.00
47414;DHT22;33163;0.000;0.000;2022-09-27T06:18:45;18.80;73.20
47414;DHT22;33163;0.000;0.000;2022-09-27T06:21:12;18.80;73.10
47414;DHT22;33163;0.000;0.000;2022-09-27T06:23:38;18.80;73.10
47414;DHT22;33163;0.000;0.000;2022-09-27T06:26:06;18.80;73.40
47414;DHT22;33163;0.000;0.000;2022-09-27T06:28:34;18.80;73.10
47414;DHT22;33163;0.000;0.000;2022-09-27T06:31:03;18.80;73.40
47414;DHT22;33163;0.000;0.000;2022-09-27T06:33:31;18.70;73.40
47414;DHT22;33163;0.000;0.000;2022-09-27T06:36:00;18.80;73.70
47414;DHT22;33163;0.000;0.000;2022-09-27T06:38:27;18.80;74.10
47414;DHT22;33163;0.000;0.000;2022-09-27T06:40:54;18.70;73.40
47414;DHT22;33163;0.000;0.000;2022-09-27T06:43:22;18.80;73.10
47414;DHT22;33163;0.000;0.000;2022-09-27T06:45:52;18.80;73.40
47414;DHT22;33163;0.000;0.000;2022-09-27T06:48:19;18.80;73.80
47414;DHT22;33163;0.000;0.000;2022-09-27T06:50:46;18.80;73.70
47414;DHT22;33163;0.000;0.000;2022-09-27T06:53:15;18.80;73.50
47414;DHT22;33163;0.000;0.000;2022-09-27T06:55:42;18.80;73.20
47414;DHT22;33163;0.000;0.000;2022-09-27T06:58:10;18.80;73.70
47414;DHT22;33163;0.000;0.000;2022-09-27T07:00:56;18.80;73.40
47414;DHT22;33163;0.000;0.000;2022-09-27T07:03:23;18.80;73.70
47414;DHT22;33163;0.000;0.000;2022-09-27T07:05:57;18.80;73.60
47414;DHT22;33163;0.000;0.000;2022-09-27T07:08:24;18.80;74.30
47414;DHT22;33163;0.000;0.000;2022-09-27T07:10:54;18.80;73.70
47414;DHT22;33163;0.000;0.000;2022-09-27T07:13:21;18.80;73.70
47414;DHT22;33163;0.000;0.000;2022-09-27T07:15:48;18.70;73.70
47414;DHT22;33163;0.000;0.000;2022-09-27T07:18:16;18.80;73.50
47414;DHT22;33163;0.000;0.000;2022-09-27T07:20:43;18.80;73.60
47414;DHT22;33163;0.000;0.000;2022-09-27T07:23:10;18.70;73.40
47414;DHT22;33163;0.000;0.000;2022-09-27T07:25:37;18.70;73.40
47414;DHT22;33163;0.000;0.000;2022-09-27T07:28:05;18.80;73.40
47414;DHT22;33163;0.000;0.000;2022-09-27T07:30:33;18.70;73.20
47414;DHT22;33163;0.000;0.000;2022-09-27T07:33:03;18.80;73.20
47414;DHT22;33163;0.000;0.000;2022-09-27T07:35:32;18.70;73.10
47414;DHT22;33163;0.000;0.000;2022-09-27T07:37:59;18.70;73.10
47414;DHT22;33163;0.000;0.000;2022-09-27T07:40:28;18.70;73.00
47414;DHT22;33163;0.000;0.000;2022-09-27T07:42:55;18.70;73.10
47414;DHT22;33163;0.000;0.000;2022-09-27T07:45:22;18.70;73.00
47414;DHT22;33163;0.000;0.000;2022-09-27T07:47:49;18.70;72.80
47414;DHT22;33163;0.000;0.000;2022-09-27T07:50:16;18.70;72.80
47414;DHT22;33163;0.000;0.000;2022-09-27T07:52:46;18.70;72.80
47414;DHT22;33163;0.000;0.000;2022-09-27T07:55:14;18.70;73.20
47414;DHT22;33163;0.000;0.000;2022-09-27T07:57:41;18.70;73.20
47414;DHT22;33163;0.000;0.000;2022-09-27T08:00:11;18.70;73.10
47414;DHT22;33163;0.000;0.000;2022-09-27T08:02:39;18.70;73.40
47414;DHT22;33163;0.000;0.000;2022-09-27T08:05:07;18.70;74.20
47414;DHT22;33163;0.000;0.000;2022-09-27T08:07:34;18.70;73.20
47414;DHT22;33163;0.000;0.000;2022-09-27T08:10:02;18.70;73.40
47414;DHT22;33163;0.000;0.000;2022-09-27T08:12:29;18.70;72.90
47414;DHT22;33163;0.000;0.000;2022-09-27T08:14:56;18.70;72.70
47414;DHT22;33163;0.000;0.000;2022-09-27T08:17:25;18.70;72.70
47414;DHT22;33163;0.000;0.000;2022-09-27T08:19:52;18.70;73.00
47414;DHT22;33163;0.000;0.000;2022-09-27T08:22:19;18.70;72.70
47414;DHT22;33163;0.000;0.000;2022-09-27T08:24:47;18.70;72.50
47414;DHT22;33163;0.000;0.000;2022-09-27T08:27:15;18.70;72.70
47414;DHT22;33163;0.000;0.000;2022-09-27T08:29:42;18.70;73.30
47414;DHT22;33163;0.000;0.000;2022-09-27T08:32:09;18.70;73.10
47414;DHT22;33163;0.000;0.000;2022-09-27T08:34:37;18.70;73.00
47414;DHT22;33163;0.000;0.000;2022-09-27T08:37:04;18.70;72.70
47414;DHT22;33163;0.000;0.000;2022-09-27T08:39:31;18.70;72.80
47414;DHT22;33163;0.000;0.000;2022-09-27T08:42:04;18.70;72.90
47414;DHT22;33163;0.000;0.000;2022-09-27T08:44:39;18.70;72.90
47414;DHT22;33163;0.000;0.000;2022-09-27T08:47:13;18.70;73.00
47414;DHT22;33163;0.000;0.000;2022-09-27T08:49:44;18.70;72.90
47414;DHT22;33163;0.000;0.000;2022-09-27T08:52:17;18.70;72.50
47414;DHT22;33163;0.000;0.000;2022-09-27T08:54:45;18.70;72.50
47414;DHT22;33163;0.000;0.000;2022-09-27T08:57:13;18.70;72.40
47414;DHT22;33163;0.000;0.000;2022-09-27T08:59:47;18.70;72.60
47414;DHT22;33163;0.000;0.000;2022-09-27T09:02:18;18.70;72.10
47414;DHT22;33163;0.000;0.000;2022-09-27T09:04:47;18.70;72.10
47414;DHT22;33163;0.000;0.000;2022-09-27T09:07:29;18.70;72.10
47414;DHT22;33163;0.000;0.000;2022-09-27T09:10:05;18.70;72.00
47414;DHT22;33163;0.000;0.000;2022-09-27T09:12:44;18.70;71.90
47414;DHT22;33163;0.000;0.000;2022-09-27T09:15:16;18.70;71.90
47414;DHT22;33163;0.000;0.000;2022-09-27T09:17:54;18.70;72.00
47414;DHT22;33163;0.000;0.000;2022-09-27T09:20:34;18.70;72.00
47414;DHT22;33163;0.000;0.000;2022-09-27T09:26:16;18.70;71.80
47414;DHT22;33163;0.000;0.000;2022-09-27T09:28:57;18.70;71.90
47414;DHT22;33163;0.000;0.000;2022-09-27T09:31:39;18.70;72.10
47414;DHT22;33163;0.000;0.000;2022-09-27T09:34:14;18.70;72.10
47414;DHT22;33163;0.000;0.000;2022-09-27T09:36:45;18.70;72.30
47414;DHT22;33163;0.000;0.000;2022-09-27T09:39:15;18.70;72.40
47414;DHT22;33163;0.000;0.000;2022-09-27T09:41:50;18.70;72.40
47414;DHT22;33163;0.000;0.000;2022-09-27T09:44:23;18.70;72.60
47414;DHT22;33163;0.000;0.000;2022-09-27T09:46:54;18.70;72.30
47414;DHT22;33163;0.000;0.000;2022-09-27T09:49:26;18.70;72.50
47414;DHT22;33163;0.000;0.000;2022-09-27T09:51:57;18.70;72.80
47414;DHT22;33163;0.000;0.000;2022-09-27T09:54:28;18.70;73.00
47414;DHT22;33163;0.000;0.000;2022-09-27T09:57:00;18.70;73.00
47414;DHT22;33163;0.000;0.000;2022-09-27T09:59:34;18.70;73.20
47414;DHT22;33163;0.000;0.000;2022-09-27T10:02:26;18.70;73.40
47414;DHT22;33163;0.000;0.000;2022-09-27T10:04:54;18.70;73.60
47414;DHT22;33163;0.000;0.000;2022-09-27T10:07:22;18.60;73.50
47414;DHT22;33163;0.000;0.000;2022-09-27T10:09:50;18.60;73.50
47414;DHT22;33163;0.000;0.000;2022-09-27T10:12:17;18.60;73.50
47414;DHT22;33163;0.000;0.000;2022-09-27T10:14:45;18.60;73.40
47414;DHT22;33163;0.000;0.000;2022-09-27T10:17:17;18.60;73.60
47414;DHT22;33163;0.000;0.000;2022-09-27T10:19:45;18.60;73.20
47414;DHT22;33163;0.000;0.000;2022-09-27T10:22:17;18.60;73.60
47414;DHT22;33163;0.000;0.000;2022-09-27T10:24:55;18.60;73.50
47414;DHT22;33163;0.000;0.000;2022-09-27T10:27:23;18.60;72.80
47414;DHT22;33163;0.000;0.000;2022-09-27T10:29:56;18.60;73.00
47414;DHT22;33163;0.000;0.000;2022-09-27T10:32:26;18.60;73.10
47414;DHT22;33163;0.000;0.000;2022-09-27T10:35:16;18.60;73.20
47414;DHT22;33163;0.000;0.000;2022-09-27T10:37:42;18.60;73.60
47414;DHT22;33163;0.000;0.000;2022-09-27T10:40:27;18.60;73.20
47414;DHT22;33163;0.000;0.000;2022-09-27T10:42:54;18.60;72.80
47414;DHT22;33163;0.000;0.000;2022-09-27T10:45:27;18.60;73.00
47414;DHT22;33163;0.000;0.000;2022-09-27T10:47:56;18.60;72.60
47414;DHT22;33163;0.000;0.000;2022-09-27T10:50:24;18.60;72.50
47414;DHT22;33163;0.000;0.000;2022-09-27T10:53:10;18.60;72.40
47414;DHT22;33163;0.000;0.000;2022-09-27T10:55:38;18.60;72.40
47414;DHT22;33163;0.000;0.000;2022-09-27T10:58:06;18.60;72.50
47414;DHT22;33163;0.000;0.000;2022-09-27T11:00:34;18.60;72.50
47414;DHT22;33163;0.000;0.000;2022-09-27T11:03:06;18.60;72.40
47414;DHT22;33163;0.000;0.000;2022-09-27T11:05:35;18.60;73.10
47414;DHT22;33163;0.000;0.000;2022-09-27T11:08:20;18.60;72.80
47414;DHT22;33163;0.000;0.000;2022-09-27T11:11:01;18.60;72.50
47414;DHT22;33163;0.000;0.000;2022-09-27T11:13:28;18.60;72.40
47414;DHT22;33163;0.000;0.000;2022-09-27T11:16:09;18.60;72.90
47414;DHT22;33163;0.000;0.000;2022-09-27T11:18:49;18.60;73.30
47414;DHT22;33163;0.000;0.000;2022-09-27T11:21:23;18.60;73.40
47414;DHT22;33163;0.000;0.000;2022-09-27T11:24:07;18.60;73.20
47414;DHT22;33163;0.000;0.000;2022-09-27T11:26:45;18.60;73.30
47414;DHT22;33163;0.000;0.000;2022-09-27T11:29:23;18.70;73.50
47414;DHT22;33163;0.000;0.000;2022-09-27T11:32:06;18.70;74.00
47414;DHT22;33163;0.000;0.000;2022-09-27T11:34:52;18.70;73.40
47414;DHT22;33163;0.000;0.000;2022-09-27T11:37:29;18.70;73.30
47414;DHT22;33163;0.000;0.000;2022-09-27T11:40:10;18.70;73.00
47414;DHT22;33163;0.000;0.000;2022-09-27T11:45:43;18.70;73.20
47414;DHT22;33163;0.000;0.000;2022-09-27T11:48:22;18.70;73.20
47414;DHT22;33163;0.000;0.000;2022-09-27T11:51:06;18.70;73.00
47414;DHT22;33163;0.000;0.000;2022-09-27T11:53:47;18.70;72.90
47414;DHT22;33163;0.000;0.000;2022-09-27T11:56:24;18.70;72.80
47414;DHT22;33163;0.000;0.000;2022-09-27T11:59:04;18.70;72.80
47414;DHT22;33163;0.000;0.000;2022-09-27T12:01:42;18.70;72.80
47414;DHT22;33163;0.000;0.000;2022-09-27T12:04:27;18.70;72.90
47414;DHT22;33163;0.000;0.000;2022-09-27T12:07:01;18.70;73.00
47414;DHT22;33163;0.000;0.000;2022-09-27T12:09:34;18.70;72.90
47414;DHT22;33163;0.000;0.000;2022-09-27T12:12:04;18.70;72.80
47414;DHT22;33163;0.000;0.000;2022-09-27T12:14:35;18.70;72.60
47414;DHT22;33163;0.000;0.000;2022-09-27T12:17:11;18.70;72.50
47414;DHT22;33163;0.000;0.000;2022-09-27T12:19:43;18.70;72.50
47414;DHT22;33163;0.000;0.000;2022-09-27T12:22:17;18.80;72.50
47414;DHT22;33163;0.000;0.000;2022-09-27T12:24:47;18.80;72.50
47414;DHT22;33163;0.000;0.000;2022-09-27T12:27:15;18.80;72.40
47414;DHT22;33163;0.000;0.000;2022-09-27T12:29:45;18.80;72.50
47414;DHT22;33163;0.000;0.000;2022-09-27T12:32:17;18.80;72.20
47414;DHT22;33163;0.000;0.000;2022-09-27T12:34:53;18.80;72.10
47414;DHT22;33163;0.000;0.000;2022-09-27T12:37:26;18.80;72.00
47414;DHT22;33163;0.000;0.000;2022-09-27T12:39:57;18.80;72.00
47414;DHT22;33163;0.000;0.000;2022-09-27T12:42:30;18.70;72.20
47414;DHT22;33163;0.000;0.000;2022-09-27T12:44:59;18.70;72.20
47414;DHT22;33163;0.000;0.000;2022-09-27T12:47:38;18.70;72.20
47414;DHT22;33163;0.000;0.000;2022-09-27T12:50:16;18.70;72.40
47414;DHT22;33163;0.000;0.000;2022-09-27T12:52:49;18.70;72.40
47414;DHT22;33163;0.000;0.000;2022-09-27T12:55:44;18.70;72.40
47414;DHT22;33163;0.000;0.000;2022-09-27T13:01:17;18.80;72.30
47414;DHT22;33163;0.000;0.000;2022-09-27T13:04:06;18.70;72.10
47414;DHT22;33163;0.000;0.000;2022-09-27T13:06:50;18.80;72.20
47414;DHT22;33163;0.000;0.000;2022-09-27T13:09:35;18.70;72.10
47414;DHT22;33163;0.000;0.000;2022-09-27T13:12:08;18.80;72.20
47414;DHT22;33163;0.000;0.000;2022-09-27T13:14:41;18.80;72.20
47414;DHT22;33163;0.000;0.000;2022-09-27T13:17:31;18.80;72.20
47414;DHT22;33163;0.000;0.000;2022-09-27T13:19:58;18.80;72.10
47414;DHT22;33163;0.000;0.000;2022-09-27T13:22:36;18.70;72.10
47414;DHT22;33163;0.000;0.000;2022-09-27T13:25:47;18.70;71.90
47414;DHT22;33163;0.000;0.000;2022-09-27T13:28:31;18.80;71.70
47414;DHT22;33163;0.000;0.000;2022-09-27T13:31:01;18.70;71.60
47414;DHT22;33163;0.000;0.000;2022-09-27T13:33:46;18.70;71.60
47414;DHT22;33163;0.000;0.000;2022-09-27T13:36:35;18.70;71.50
47414;DHT22;33163;0.000;0.000;2022-09-27T13:39:18;18.70;71.40
47414;DHT22;33163;0.000;0.000;2022-09-27T13:42:13;18.70;71.20
47414;DHT22;33163;0.000;0.000;2022-09-27T13:44:52;18.70;71.00
47414;DHT22;33163;0.000;0.000;2022-09-27T13:47:31;18.70;71.10
47414;DHT22;33163;0.000;0.000;2022-09-27T13:50:16;18.70;70.80
47414;DHT22;33163;0.000;0.000;2022-09-27T13:52:56;18.70;70.80
47414;DHT22;33163;0.000;0.000;2022-09-27T13:55:44;18.70;70.70
47414;DHT22;33163;0.000;0.000;2022-09-27T13:58:31;18.70;70.60
47414;DHT22;33163;0.000;0.000;2022-09-27T14:01:02;18.70;70.60
47414;DHT22;33163;0.000;0.000;2022-09-27T14:03:30;18.70;70.70
47414;DHT22;33163;0.000;0.000;2022-09-27T14:06:01;18.70;70.80
47414;DHT22;33163;0.000;0.000;2022-09-27T14:08:31;18.70;70.70
47414;DHT22;33163;0.000;0.000;2022-09-27T14:11:00;18.70;70.60
47414;DHT22;33163;0.000;0.000;2022-09-27T14:13:30;18.70;71.20
47414;DHT22;33163;0.000;0.000;2022-09-27T14:15:59;18.70;71.20
47414;DHT22;33163;0.000;0.000;2022-09-27T14:18:29;18.70;70.90
47414;DHT22;33163;0.000;0.000;2022-09-27T14:21:10;18.70;70.90
47414;DHT22;33163;0.000;0.000;2022-09-27T14:23:41;18.70;70.90
47414;DHT22;33163;0.000;0.000;2022-09-27T14:26:20;18.70;70.80
47414;DHT22;33163;0.000;0.000;2022-09-27T14:28:49;18.70;70.80
47414;DHT22;33163;0.000;0.000;2022-09-27T14:31:17;18.70;70.90
47414;DHT22;33163;0.000;0.000;2022-09-27T14:33:44;18.70;70.90
47414;DHT22;33163;0.000;0.000;2022-09-27T14:36:24;18.70;70.90
47414;DHT22;33163;0.000;0.000;2022-09-27T14:39:13;18.70;70.80
47414;DHT22;33163;0.000;0.000;2022-09-27T14:41:40;18.70;71.10
47414;DHT22;33163;0.000;0.000;2022-09-27T14:44:14;18.70;71.50
47414;DHT22;33163;0.000;0.000;2022-09-27T14:46:41;18.70;70.80
47414;DHT22;33163;0.000;0.000;2022-09-27T14:49:18;18.60;70.70
47414;DHT22;33163;0.000;0.000;2022-09-27T14:51:50;18.60;71.20
47414;DHT22;33163;0.000;0.000;2022-09-27T14:54:22;18.60;71.20
47414;DHT22;33163;0.000;0.000;2022-09-27T14:56:51;18.60;71.70
47414;DHT22;33163;0.000;0.000;2022-09-27T14:59:24;18.60;71.70
47414;DHT22;33163;0.000;0.000;2022-09-27T15:01:57;18.60;71.60
47414;DHT22;33163;0.000;0.000;2022-09-27T15:04:27;18.60;71.90
47414;DHT22;33163;0.000;0.000;2022-09-27T15:06:56;18.60;72.20
47414;DHT22;33163;0.000;0.000;2022-09-27T15:09:23;18.60;72.00
47414;DHT22;33163;0.000;0.000;2022-09-27T15:11:56;18.60;71.80
47414;DHT22;33163;0.000;0.000;2022-09-27T15:14:27;18.60;71.50
47414;DHT22;33163;0.000;0.000;2022-09-27T15:16:57;18.60;71.30
47414;DHT22;33163;0.000;0.000;2022-09-27T15:19:30;18.60;71.60
47414;DHT22;33163;0.000;0.000;2022-09-27T15:22:21;18.60;71.20
47414;DHT22;33163;0.000;0.000;2022-09-27T15:24:48;18.60;71.50
47414;DHT22;33163;0.000;0.000;2022-09-27T15:27:17;18.60;71.30
47414;DHT22;33163;0.000;0.000;2022-09-27T15:29:49;18.60;71.50
47414;DHT22;33163;0.000;0.000;2022-09-27T15:32:17;18.60;71.30
47414;DHT22;33163;0.000;0.000;2022-09-27T15:34:45;18.60;71.30
47414;DHT22;33163;0.000;0.000;2022-09-27T15:37:24;18.60;71.30
47414;DHT22;33163;0.000;0.000;2022-09-27T15:39:52;18.60;71.40
47414;DHT22;33163;0.000;0.000;2022-09-27T15:42:19;18.60;71.50
47414;DHT22;33163;0.000;0.000;2022-09-27T15:44:48;18.60;71.50
47414;DHT22;33163;0.000;0.000;2022-09-27T15:47:38;18.60;72.00
47414;DHT22;33163;0.000;0.000;2022-09-27T15:50:36;18.70;71.50
47414;DHT22;33163;0.000;0.000;2022-09-27T15:53:04;18.70;71.50
47414;DHT22;33163;0.000;0.000;2022-09-27T15:55:33;18.60;71.60
47414;DHT22;33163;0.000;0.000;2022-09-27T15:58:03;18.60;71.60
47414;DHT22;33163;0.000;0.000;2022-09-27T16:00:32;18.70;71.80
47414;DHT22;33163;0.000;0.000;2022-09-27T16:02:59;18.70;72.10
47414;DHT22;33163;0.000;0.000;2022-09-27T16:05:26;18.70;72.30
47414;DHT22;33163;0.000;0.000;2022-09-27T16:07:54;18.70;73.00
47414;DHT22;33163;0.000;0.000;2022-09-27T16:10:26;18.70;73.00
47414;DHT22;33163;0.000;0.000;2022-09-27T16:12:54;18.70;73.10
47414;DHT22;33163;0.000;0.000;2022-09-27T16:15:21;18.70;73.10
47414;DHT22;33163;0.000;0.000;2022-09-27T16:17:49;18.70;73.40
47414;DHT22;33163;0.000;0.000;2022-09-27T16:20:18;18.70;73.70
47414;DHT22;33163;0.000;0.000;2022-09-27T16:22:47;18.80;74.20
47414;DHT22;33163;0.000;0.000;2022-09-27T16:25:14;18.80;74.30